Gordons, Illinois
Current Conditions -  °F | °C
As of 8:15 AM on Thursday 18 Dec 2014 (Local Time) from KRSV Reporting Station
Overcast Overcast  
Wind Chill: 21°   Ceiling: 9000
Heat Index: 27°   Visibility: 10mi
Dew Point: 22°   Wind: 5mph
Humidity: 83%   Direction: 50°NE
Pressure: 30.32"   Gusts: NA
Location:  39.0131°N, 87.7657°W
Report Text: KRSV 181415Z AUTO 05004KT 10SM OVC090 M03/M05 A3032 RMK AO2 T10291054
Loading
Personal Weather Stations






























Interactive Weather Map New forecast layout! Learn more

10-Day Weather Forecast

Advertisements
Track Severe Weather on mobile